Time;durP1;ratioP1;P1;durP2;ratioP2;P2;SDS_P1;SDS_P2;PMS_P1;PMS_P2;Temp;Humidity;BMP_temperature;BMP_pressure;BME280_temperature;BME280_humidity;BME280_pressure;Samples;Min_cycle;Max_cycle;Signal;HPM_P1;HPM_P2
2021/07/15 00:00:31;;;;;;;;;;;18.70;99.90;;;;;;5037889;28;19917;-77
2021/07/15 00:03:07;;;;;;;;;;;18.80;99.90;;;;;;5042779;28;19915;-77
2021/07/15 00:05:33;;;;;;;;;;;18.70;99.90;;;;;;5039197;28;19916;-76
2021/07/15 00:08:00;;;;;;;;;;;18.70;99.90;;;;;;5041658;28;19917;-77
2021/07/15 00:10:32;;;;;;;;;;;18.70;99.90;;;;;;5041500;28;19917;-76
2021/07/15 00:12:57;;;;;;;;;;;18.60;99.90;;;;;;5034200;28;19913;-76
2021/07/15 00:15:25;;;;;;;;;;;18.60;99.90;;;;;;5041981;28;20335;-77
2021/07/15 00:17:52;;;;;;;;;;;18.60;99.90;;;;;;5048124;28;19954;-77
2021/07/15 00:20:18;;;;;;;;;;;18.60;99.90;;;;;;5048145;28;19942;-77
2021/07/15 00:22:44;;;;;;;;;;;18.60;99.90;;;;;;5041187;28;19945;-77
2021/07/15 00:25:12;;;;;;;;;;;18.60;99.90;;;;;;5043350;28;19995;-76
2021/07/15 00:27:38;;;;;;;;;;;18.60;99.90;;;;;;5041468;28;19913;-77
2021/07/15 00:30:05;;;;;;;;;;;18.60;99.90;;;;;;5047598;28;19909;-76
2021/07/15 00:32:30;;;;;;;;;;;18.60;99.90;;;;;;5044848;28;19958;-76
2021/07/15 00:34:56;;;;;;;;;;;18.60;99.90;;;;;;5037799;28;19908;-76
2021/07/15 00:37:22;;;;;;;;;;;18.60;99.90;;;;;;5041559;28;20381;-76
2021/07/15 00:39:47;;;;;;;;;;;18.60;99.90;;;;;;5037161;28;20008;-77
2021/07/15 00:42:12;;;;;;;;;;;18.60;99.90;;;;;;5054095;28;20349;-77
2021/07/15 00:44:39;;;;;;;;;;;18.60;99.90;;;;;;5045427;28;19909;-76
2021/07/15 00:47:04;;;;;;;;;;;18.60;99.90;;;;;;5039728;28;19913;-76
2021/07/15 00:49:30;;;;;;;;;;;18.60;99.90;;;;;;5047221;28;19917;-77
2021/07/15 00:51:55;;;;;;;;;;;18.60;99.90;;;;;;5038793;28;20004;-77
2021/07/15 00:54:21;;;;;;;;;;;18.50;99.90;;;;;;5037022;28;19909;-76
2021/07/15 00:56:46;;;;;;;;;;;18.60;99.90;;;;;;5046494;28;20328;-76
2021/07/15 00:59:12;;;;;;;;;;;18.50;99.90;;;;;;5041140;28;19996;-76
2021/07/15 01:01:37;;;;;;;;;;;18.50;99.90;;;;;;5036620;28;19909;-77
2021/07/15 01:04:03;;;;;;;;;;;18.50;99.90;;;;;;5042078;28;19962;-76
2021/07/15 01:06:28;;;;;;;;;;;18.50;99.90;;;;;;5043216;28;19919;-76
2021/07/15 01:08:54;;;;;;;;;;;18.50;99.90;;;;;;5038972;28;19923;-76
2021/07/15 01:11:19;;;;;;;;;;;18.50;99.90;;;;;;5038212;28;20404;-76
2021/07/15 01:13:49;;;;;;;;;;;18.50;99.90;;;;;;5040677;28;19956;-76
2021/07/15 01:16:15;;;;;;;;;;;18.50;99.90;;;;;;5051323;28;19956;-77
2021/07/15 01:19:00;;;;;;;;;;;18.40;99.90;;;;;;5039067;28;19919;-77
2021/07/15 01:21:32;;;;;;;;;;;18.40;99.90;;;;;;5043526;28;20332;-76
2021/07/15 01:24:16;;;;;;;;;;;18.40;99.90;;;;;;5036459;28;20274;-76
2021/07/15 01:27:01;;;;;;;;;;;18.40;99.90;;;;;;5041759;28;19913;-76
2021/07/15 01:29:26;;;;;;;;;;;18.40;99.90;;;;;;5038535;28;19913;-76
2021/07/15 01:31:55;;;;;;;;;;;18.40;99.90;;;;;;5035801;28;19996;-77
2021/07/15 01:34:23;;;;;;;;;;;18.40;99.90;;;;;;5051114;28;20377;-76
2021/07/15 01:36:51;;;;;;;;;;;18.40;99.90;;;;;;5046110;28;19963;-76
2021/07/15 01:39:17;;;;;;;;;;;18.40;99.90;;;;;;5040348;28;19960;-76
2021/07/15 01:41:47;;;;;;;;;;;18.30;99.90;;;;;;5039777;28;19994;-76
2021/07/15 01:44:16;;;;;;;;;;;18.30;99.90;;;;;;5038548;28;19915;-76
2021/07/15 01:46:42;;;;;;;;;;;18.30;99.90;;;;;;5047533;28;19920;-76
2021/07/15 01:49:08;;;;;;;;;;;18.20;99.90;;;;;;5040327;28;19917;-76
2021/07/15 01:51:34;;;;;;;;;;;18.20;99.90;;;;;;5045385;28;19944;-76
2021/07/15 01:54:00;;;;;;;;;;;18.20;99.90;;;;;;5042392;28;20353;-77
2021/07/15 01:56:26;;;;;;;;;;;18.20;99.90;;;;;;5042783;28;19925;-77
2021/07/15 01:58:53;;;;;;;;;;;18.20;99.90;;;;;;5036066;28;19909;-77
2021/07/15 02:01:19;;;;;;;;;;;18.20;99.90;;;;;;5036485;28;20292;-77
2021/07/15 02:03:48;;;;;;;;;;;18.20;99.90;;;;;;5039675;28;19909;-76
2021/07/15 02:06:14;;;;;;;;;;;18.10;99.90;;;;;;5035502;28;19974;-76
2021/07/15 02:08:41;;;;;;;;;;;18.20;99.90;;;;;;5032261;28;19928;-76
2021/07/15 02:11:08;;;;;;;;;;;18.20;99.90;;;;;;5040493;28;19921;-76
2021/07/15 02:13:34;;;;;;;;;;;18.10;99.90;;;;;;5039959;28;20278;-77
2021/07/15 02:15:59;;;;;;;;;;;18.10;99.90;;;;;;5036748;28;19932;-76
2021/07/15 02:18:26;;;;;;;;;;;18.10;99.90;;;;;;5037238;28;19915;-76
2021/07/15 02:20:52;;;;;;;;;;;18.10;99.90;;;;;;5037610;28;19916;-76
2021/07/15 02:23:18;;;;;;;;;;;18.10;99.90;;;;;;5039867;28;19908;-76
2021/07/15 02:25:47;;;;;;;;;;;18.10;99.90;;;;;;5041856;28;19916;-76
2021/07/15 02:28:12;;;;;;;;;;;18.10;99.90;;;;;;5048943;28;20467;-76
2021/07/15 02:30:38;;;;;;;;;;;18.20;99.90;;;;;;5037660;28;19924;-76
2021/07/15 02:33:09;;;;;;;;;;;18.10;99.90;;;;;;5036439;28;20381;-76
2021/07/15 02:35:38;;;;;;;;;;;18.10;99.90;;;;;;5040139;28;19916;-76
2021/07/15 02:38:05;;;;;;;;;;;18.10;99.90;;;;;;5037550;28;19917;-78
2021/07/15 02:40:31;;;;;;;;;;;18.10;99.90;;;;;;5042903;28;19916;-76
2021/07/15 02:42:57;;;;;;;;;;;18.00;99.90;;;;;;5040604;28;19908;-77
2021/07/15 02:45:23;;;;;;;;;;;18.00;99.90;;;;;;5048458;28;19920;-76
2021/07/15 02:47:49;;;;;;;;;;;18.00;99.90;;;;;;5041131;28;20086;-76
2021/07/15 02:50:16;;;;;;;;;;;18.00;99.90;;;;;;5031865;28;20318;-77
2021/07/15 02:52:42;;;;;;;;;;;18.00;99.90;;;;;;5040045;28;19909;-76
2021/07/15 02:55:09;;;;;;;;;;;18.00;99.90;;;;;;5039825;28;20000;-76
2021/07/15 02:57:35;;;;;;;;;;;18.00;99.90;;;;;;5034684;28;19909;-76
2021/07/15 03:00:05;;;;;;;;;;;17.90;99.90;;;;;;5037801;28;19978;-76
2021/07/15 03:02:33;;;;;;;;;;;18.00;99.90;;;;;;5035421;28;19983;-75
2021/07/15 03:05:05;;;;;;;;;;;18.00;99.90;;;;;;5042063;28;19909;-76
2021/07/15 03:07:32;;;;;;;;;;;18.00;99.90;;;;;;5055244;28;19897;-76
2021/07/15 03:09:58;;;;;;;;;;;18.00;99.90;;;;;;5057661;28;20344;-76
2021/07/15 03:12:24;;;;;;;;;;;18.00;99.90;;;;;;5061430;28;19917;-77
2021/07/15 03:14:54;;;;;;;;;;;17.90;99.90;;;;;;5054818;28;19916;-76
2021/07/15 03:17:29;;;;;;;;;;;17.90;99.90;;;;;;5057879;28;19917;-76
2021/07/15 03:19:56;;;;;;;;;;;18.00;99.90;;;;;;5058273;28;19913;-76
2021/07/15 03:22:24;;;;;;;;;;;17.90;99.90;;;;;;5065161;28;19912;-77
2021/07/15 03:24:55;;;;;;;;;;;17.90;99.90;;;;;;5060306;28;19903;-76
2021/07/15 03:27:21;;;;;;;;;;;17.90;99.90;;;;;;5060112;28;19983;-76
2021/07/15 03:29:48;;;;;;;;;;;18.00;99.90;;;;;;5059650;28;19928;-76
2021/07/15 03:32:13;;;;;;;;;;;17.90;99.90;;;;;;5064453;28;19913;-75
2021/07/15 03:34:39;;;;;;;;;;;18.00;99.90;;;;;;5070111;28;19897;-76
2021/07/15 03:37:05;;;;;;;;;;;17.90;99.90;;;;;;5072959;28;19917;-76
2021/07/15 03:39:31;;;;;;;;;;;18.00;99.90;;;;;;5062995;28;19897;-77
2021/07/15 03:41:57;;;;;;;;;;;18.00;99.90;;;;;;5061099;28;19913;-74
2021/07/15 03:44:23;;;;;;;;;;;18.00;99.90;;;;;;5040723;28;19920;-77
2021/07/15 03:46:49;;;;;;;;;;;17.90;99.90;;;;;;5043547;28;19919;-77
2021/07/15 03:49:18;;;;;;;;;;;17.90;99.90;;;;;;5045077;28;19915;-76
2021/07/15 03:51:44;;;;;;;;;;;17.90;99.90;;;;;;5047932;28;19908;-76
2021/07/15 03:54:10;;;;;;;;;;;17.90;99.90;;;;;;5041448;28;19920;-76
2021/07/15 03:56:37;;;;;;;;;;;17.90;99.90;;;;;;5039625;28;19909;-77
2021/07/15 03:59:03;;;;;;;;;;;17.80;99.90;;;;;;5037899;28;19892;-77
2021/07/15 04:01:32;;;;;;;;;;;17.90;99.90;;;;;;5042871;28;19909;-77
2021/07/15 04:03:58;;;;;;;;;;;17.90;99.90;;;;;;5037064;28;19995;-77
2021/07/15 04:06:25;;;;;;;;;;;17.80;99.90;;;;;;5039269;28;20369;-78
2021/07/15 04:08:51;;;;;;;;;;;17.80;99.90;;;;;;5031066;28;19940;-78
2021/07/15 04:11:18;;;;;;;;;;;17.80;99.90;;;;;;5028244;28;19909;-77
2021/07/15 04:13:44;;;;;;;;;;;17.80;99.90;;;;;;5030276;28;20324;-77
2021/07/15 04:16:32;;;;;;;;;;;17.80;99.90;;;;;;5034478;28;20011;-76
2021/07/15 04:18:59;;;;;;;;;;;17.80;99.90;;;;;;5036831;28;19909;-76
2021/07/15 04:21:24;;;;;;;;;;;17.80;99.90;;;;;;5049730;28;19915;-77
2021/07/15 04:23:51;;;;;;;;;;;17.80;99.90;;;;;;5034967;28;20428;-77
2021/07/15 04:26:17;;;;;;;;;;;17.80;99.90;;;;;;5038902;28;19919;-78
2021/07/15 04:28:44;;;;;;;;;;;17.80;99.90;;;;;;5043213;28;19955;-77
2021/07/15 04:31:14;;;;;;;;;;;17.80;99.90;;;;;;5033589;28;19916;-76
2021/07/15 04:33:40;;;;;;;;;;;17.80;99.90;;;;;;5033529;28;20362;-76
2021/07/15 04:36:07;;;;;;;;;;;17.80;99.90;;;;;;5037179;28;19999;-77
2021/07/15 04:38:33;;;;;;;;;;;17.70;99.90;;;;;;5044912;28;19939;-77
2021/07/15 04:40:59;;;;;;;;;;;17.70;99.90;;;;;;5034428;28;19954;-77
2021/07/15 04:43:25;;;;;;;;;;;17.80;99.90;;;;;;5040409;28;21272;-77
2021/07/15 04:45:53;;;;;;;;;;;17.70;99.90;;;;;;5043994;28;19935;-77
2021/07/15 04:48:18;;;;;;;;;;;17.70;99.90;;;;;;5037324;28;20273;-76
2021/07/15 04:50:44;;;;;;;;;;;17.70;99.90;;;;;;5033099;28;19955;-76
2021/07/15 04:53:11;;;;;;;;;;;17.70;99.90;;;;;;5037843;28;19940;-77
2021/07/15 04:55:37;;;;;;;;;;;17.60;99.90;;;;;;5029684;28;19931;-77
2021/07/15 04:58:04;;;;;;;;;;;17.60;99.90;;;;;;5042227;28;19909;-77
2021/07/15 05:00:29;;;;;;;;;;;17.60;99.90;;;;;;5041998;28;19997;-77
2021/07/15 05:03:15;;;;;;;;;;;17.70;99.90;;;;;;5040323;28;19999;-77
2021/07/15 05:05:40;;;;;;;;;;;17.60;99.90;;;;;;5038181;28;19916;-77
2021/07/15 05:08:06;;;;;;;;;;;17.70;99.90;;;;;;5038584;28;19995;-77
2021/07/15 05:10:31;;;;;;;;;;;17.60;99.90;;;;;;5038129;28;19909;-77
2021/07/15 05:12:57;;;;;;;;;;;17.60;99.90;;;;;;5038250;28;19916;-77
2021/07/15 05:15:22;;;;;;;;;;;17.60;99.90;;;;;;5048246;28;20346;-77
2021/07/15 05:17:48;;;;;;;;;;;17.50;99.90;;;;;;5040251;28;19909;-77
2021/07/15 05:20:13;;;;;;;;;;;17.60;99.90;;;;;;5038675;28;19915;-77
2021/07/15 05:22:39;;;;;;;;;;;17.50;99.90;;;;;;5042223;28;19909;-76
2021/07/15 05:25:06;;;;;;;;;;;17.50;99.90;;;;;;5035424;28;19912;-77
2021/07/15 05:27:32;;;;;;;;;;;17.60;99.90;;;;;;5039397;28;19931;-77
2021/07/15 05:29:57;;;;;;;;;;;17.60;99.90;;;;;;5041177;28;20266;-76
2021/07/15 05:32:23;;;;;;;;;;;17.50;99.90;;;;;;5044607;28;19909;-77
2021/07/15 05:34:49;;;;;;;;;;;17.50;99.90;;;;;;5041401;28;19916;-78
2021/07/15 05:37:14;;;;;;;;;;;17.50;99.90;;;;;;5044605;28;19916;-77
2021/07/15 05:39:43;;;;;;;;;;;17.50;99.90;;;;;;5038128;28;20312;-77
2021/07/15 05:42:09;;;;;;;;;;;17.50;99.90;;;;;;5034855;28;19909;-77
2021/07/15 05:44:35;;;;;;;;;;;17.50;99.90;;;;;;5038462;28;19916;-77
2021/07/15 05:47:00;;;;;;;;;;;17.60;99.90;;;;;;5040244;28;19913;-78
2021/07/15 05:49:25;;;;;;;;;;;17.60;99.90;;;;;;5044476;28;19908;-77
2021/07/15 05:51:51;;;;;;;;;;;17.50;99.90;;;;;;5041470;28;20345;-77
2021/07/15 05:54:16;;;;;;;;;;;17.50;99.90;;;;;;5035055;28;19909;-77
2021/07/15 05:56:42;;;;;;;;;;;17.50;99.90;;;;;;5044773;28;19913;-78
2021/07/15 05:59:07;;;;;;;;;;;17.50;99.90;;;;;;5041753;28;19916;-77
2021/07/15 06:01:33;;;;;;;;;;;17.50;99.90;;;;;;5039232;28;19917;-78
2021/07/15 06:03:58;;;;;;;;;;;17.50;99.90;;;;;;5041830;28;20014;-77
2021/07/15 06:06:24;;;;;;;;;;;17.40;99.90;;;;;;5041874;28;20253;-78
2021/07/15 06:08:50;;;;;;;;;;;17.40;99.90;;;;;;5031861;28;19921;-78
2021/07/15 06:11:15;;;;;;;;;;;17.40;99.90;;;;;;5033368;28;19909;-79
2021/07/15 06:13:41;;;;;;;;;;;17.40;99.90;;;;;;5034216;28;19971;-79
2021/07/15 06:16:06;;;;;;;;;;;17.40;99.90;;;;;;5039184;28;19916;-79
2021/07/15 06:18:32;;;;;;;;;;;17.50;99.90;;;;;;5054447;28;20415;-81
2021/07/15 06:20:58;;;;;;;;;;;17.50;99.90;;;;;;5037782;28;19916;-80
2021/07/15 06:23:25;;;;;;;;;;;17.40;99.90;;;;;;5036155;28;20380;-80
2021/07/15 06:25:50;;;;;;;;;;;17.50;99.90;;;;;;5035020;28;19936;-79
2021/07/15 06:28:16;;;;;;;;;;;17.40;99.90;;;;;;5034938;28;19913;-79
2021/07/15 06:30:41;;;;;;;;;;;17.50;99.90;;;;;;5040021;28;19964;-79
2021/07/15 06:33:07;;;;;;;;;;;17.50;99.90;;;;;;5027680;28;19909;-79
2021/07/15 06:35:39;;;;;;;;;;;17.40;99.90;;;;;;5036899;28;19963;-79
2021/07/15 06:38:05;;;;;;;;;;;17.40;99.90;;;;;;5031335;28;19909;-80
2021/07/15 06:40:30;;;;;;;;;;;17.40;99.90;;;;;;5032593;28;19909;-79
2021/07/15 06:42:56;;;;;;;;;;;17.40;99.90;;;;;;5035181;28;19916;-79
2021/07/15 06:45:21;;;;;;;;;;;17.40;99.90;;;;;;5034747;28;19913;-79
2021/07/15 06:47:47;;;;;;;;;;;17.40;99.90;;;;;;5034977;28;19951;-79
2021/07/15 06:50:14;;;;;;;;;;;17.40;99.90;;;;;;5034204;28;19938;-79
2021/07/15 06:52:40;;;;;;;;;;;17.40;99.90;;;;;;5033498;28;19920;-79
2021/07/15 06:55:08;;;;;;;;;;;17.40;99.90;;;;;;5033514;28;19908;-80
2021/07/15 06:57:34;;;;;;;;;;;17.50;99.90;;;;;;5039631;28;19948;-79
2021/07/15 07:00:00;;;;;;;;;;;17.50;99.90;;;;;;5030575;28;20369;-79
2021/07/15 07:02:26;;;;;;;;;;;17.50;99.90;;;;;;5037133;28;19970;-80
2021/07/15 07:04:52;;;;;;;;;;;17.50;99.90;;;;;;5052299;28;19921;-81
2021/07/15 07:07:18;;;;;;;;;;;17.50;99.90;;;;;;5055419;28;19897;-78
2021/07/15 07:09:43;;;;;;;;;;;17.50;99.90;;;;;;5055233;28;20027;-77
2021/07/15 07:12:09;;;;;;;;;;;17.50;99.90;;;;;;5053587;28;20078;-80
2021/07/15 07:14:35;;;;;;;;;;;17.50;99.90;;;;;;5056615;28;19916;-80
2021/07/15 07:17:00;;;;;;;;;;;17.50;99.90;;;;;;5057202;28;19903;-80
2021/07/15 07:19:26;;;;;;;;;;;17.60;99.90;;;;;;5057523;28;19952;-80
2021/07/15 07:21:51;;;;;;;;;;;17.60;99.90;;;;;;5055792;28;19913;-80
2021/07/15 07:24:17;;;;;;;;;;;17.60;99.90;;;;;;5058212;28;19904;-80
2021/07/15 07:26:42;;;;;;;;;;;17.60;99.90;;;;;;5059734;28;19912;-80
2021/07/15 07:29:08;;;;;;;;;;;17.60;99.90;;;;;;5074621;28;19904;-77
2021/07/15 07:31:33;;;;;;;;;;;17.60;99.90;;;;;;5058397;28;19945;-79
2021/07/15 07:33:59;;;;;;;;;;;17.60;99.90;;;;;;5056988;28;19921;-78
2021/07/15 07:36:25;;;;;;;;;;;17.60;99.90;;;;;;5056575;28;19897;-80
2021/07/15 07:38:50;;;;;;;;;;;17.70;99.90;;;;;;5054500;28;19897;-77
2021/07/15 07:41:16;;;;;;;;;;;17.70;99.90;;;;;;5064509;28;19910;-78
2021/07/15 07:43:42;;;;;;;;;;;17.70;99.90;;;;;;5055511;28;19940;-79
2021/07/15 07:46:07;;;;;;;;;;;17.70;99.90;;;;;;5055148;28;19909;-78
2021/07/15 07:48:33;;;;;;;;;;;17.70;99.90;;;;;;5039256;28;19909;-79
2021/07/15 07:50:58;;;;;;;;;;;17.70;99.90;;;;;;5038968;28;19940;-80
2021/07/15 07:53:27;;;;;;;;;;;17.70;99.90;;;;;;5043156;28;20086;-80
2021/07/15 07:55:53;;;;;;;;;;;17.70;99.90;;;;;;5047855;28;19916;-80
2021/07/15 07:58:19;;;;;;;;;;;17.70;99.90;;;;;;5042699;28;20293;-79
2021/07/15 08:00:44;;;;;;;;;;;17.70;99.90;;;;;;5051886;28;19909;-79
2021/07/15 08:03:09;;;;;;;;;;;17.70;99.90;;;;;;5034786;28;19913;-78
2021/07/15 08:05:38;;;;;;;;;;;17.70;99.90;;;;;;5035674;28;20428;-79
2021/07/15 08:08:04;;;;;;;;;;;17.70;99.90;;;;;;5035068;28;20004;-79
2021/07/15 08:10:30;;;;;;;;;;;17.80;99.90;;;;;;5034632;28;19963;-80
2021/07/15 08:12:55;;;;;;;;;;;17.80;99.90;;;;;;5033403;28;19909;-80
2021/07/15 08:15:21;;;;;;;;;;;17.80;99.90;;;;;;5034337;28;20001;-79
2021/07/15 08:17:47;;;;;;;;;;;17.80;99.90;;;;;;5033771;28;19909;-79
2021/07/15 08:20:12;;;;;;;;;;;17.80;99.90;;;;;;5032225;28;19999;-81
2021/07/15 08:22:39;;;;;;;;;;;17.80;99.90;;;;;;5034343;28;20289;-80
2021/07/15 08:25:05;;;;;;;;;;;17.80;99.90;;;;;;5032843;28;19909;-79
2021/07/15 08:27:31;;;;;;;;;;;17.80;99.90;;;;;;5031298;28;19971;-79
2021/07/15 08:29:56;;;;;;;;;;;17.80;99.90;;;;;;5033484;28;19917;-79
2021/07/15 08:32:22;;;;;;;;;;;17.80;99.90;;;;;;5032086;28;19968;-80
2021/07/15 08:34:47;;;;;;;;;;;17.80;99.90;;;;;;5033050;28;20317;-79
2021/07/15 08:37:13;;;;;;;;;;;17.80;99.90;;;;;;5033930;28;19909;-78
2021/07/15 08:39:39;;;;;;;;;;;17.90;99.90;;;;;;5031143;28;20357;-81
2021/07/15 08:42:07;;;;;;;;;;;17.90;99.90;;;;;;5033419;28;19916;-84
2021/07/15 08:44:32;;;;;;;;;;;17.90;99.90;;;;;;5035878;28;20351;-82
2021/07/15 08:46:58;;;;;;;;;;;17.80;99.90;;;;;;5034648;28;19956;-86
2021/07/15 08:49:24;;;;;;;;;;;17.80;99.90;;;;;;5034679;28;19909;-83
2021/07/15 08:51:49;;;;;;;;;;;17.70;99.90;;;;;;5034202;28;19936;-81
2021/07/15 08:54:16;;;;;;;;;;;17.70;99.90;;;;;;5027890;28;19920;-81
2021/07/15 08:56:44;;;;;;;;;;;17.60;99.90;;;;;;5026566;28;19913;-79
2021/07/15 08:59:13;;;;;;;;;;;17.50;99.90;;;;;;5028056;28;20353;-78
2021/07/15 09:01:43;;;;;;;;;;;17.40;99.90;;;;;;5040631;28;19909;-79
2021/07/15 09:04:09;;;;;;;;;;;17.30;99.90;;;;;;5025124;28;19916;-78
2021/07/15 09:06:35;;;;;;;;;;;17.30;99.90;;;;;;5034264;28;20269;-78
2021/07/15 09:09:01;;;;;;;;;;;17.30;99.90;;;;;;5034762;28;20052;-77
2021/07/15 09:11:26;;;;;;;;;;;17.30;99.90;;;;;;5033581;28;19964;-77
2021/07/15 09:13:52;;;;;;;;;;;17.20;99.90;;;;;;5044812;28;20265;-76
2021/07/15 09:16:17;;;;;;;;;;;17.20;99.90;;;;;;5030480;28;19916;-76
2021/07/15 09:19:09;;;;;;;;;;;17.20;99.90;;;;;;5042487;28;20323;-76
2021/07/15 09:21:36;;;;;;;;;;;17.10;99.90;;;;;;5031123;28;19909;-77
2021/07/15 09:24:03;;;;;;;;;;;17.20;99.90;;;;;;5032628;28;19909;-76
2021/07/15 09:26:30;;;;;;;;;;;17.20;99.90;;;;;;5023424;28;19936;-76
2021/07/15 09:29:11;;;;;;;;;;;17.20;99.90;;;;;;5033377;28;19913;-76
2021/07/15 09:31:49;;;;;;;;;;;17.30;99.90;;;;;;5034790;28;19917;-77
2021/07/15 09:34:14;;;;;;;;;;;17.30;99.90;;;;;;5032684;28;19920;-76
2021/07/15 09:36:40;;;;;;;;;;;17.30;99.90;;;;;;5025733;28;19920;-75
2021/07/15 09:39:14;;;;;;;;;;;17.30;99.90;;;;;;5024339;28;20138;-76
2021/07/15 09:41:40;;;;;;;;;;;17.30;99.90;;;;;;5030530;28;20375;-75
2021/07/15 09:44:05;;;;;;;;;;;17.30;99.90;;;;;;5031528;28;19909;-79
2021/07/15 09:46:34;;;;;;;;;;;17.30;99.90;;;;;;5026246;28;19979;-77
2021/07/15 09:49:02;;;;;;;;;;;17.30;99.90;;;;;;5027842;28;21687;-76
2021/07/15 09:51:35;;;;;;;;;;;17.30;99.90;;;;;;5028773;28;19994;-78
2021/07/15 09:54:02;;;;;;;;;;;17.30;99.90;;;;;;5031155;28;20287;-75
2021/07/15 09:56:28;;;;;;;;;;;17.30;99.90;;;;;;5034349;28;19915;-76
2021/07/15 09:58:55;;;;;;;;;;;17.40;99.90;;;;;;5032429;28;19931;-75
2021/07/15 10:01:21;;;;;;;;;;;17.30;99.90;;;;;;5032770;28;20377;-75
2021/07/15 10:03:48;;;;;;;;;;;17.40;99.90;;;;;;5029722;28;19908;-75
2021/07/15 10:06:14;;;;;;;;;;;17.40;99.90;;;;;;5029649;28;19909;-75
2021/07/15 10:08:41;;;;;;;;;;;17.40;99.90;;;;;;5033806;28;20378;-76
2021/07/15 10:11:13;;;;;;;;;;;17.40;99.90;;;;;;5033054;28;19915;-76
2021/07/15 10:13:38;;;;;;;;;;;17.40;99.90;;;;;;5028653;28;19909;-76
2021/07/15 10:16:04;;;;;;;;;;;17.50;99.90;;;;;;5033812;28;19963;-76
2021/07/15 10:18:35;;;;;;;;;;;17.50;99.90;;;;;;5038612;28;20418;-76
2021/07/15 10:21:00;;;;;;;;;;;17.50;99.90;;;;;;5032499;28;19917;-76
2021/07/15 10:23:36;;;;;;;;;;;17.50;99.90;;;;;;5035488;28;19905;-76
2021/07/15 10:26:02;;;;;;;;;;;17.60;99.90;;;;;;5032976;28;19909;-76
2021/07/15 10:28:28;;;;;;;;;;;17.60;99.90;;;;;;5034504;28;19909;-77
2021/07/15 10:30:55;;;;;;;;;;;17.70;99.90;;;;;;5032664;28;19915;-77
2021/07/15 10:33:21;;;;;;;;;;;17.80;99.90;;;;;;5030499;28;19962;-77
2021/07/15 10:35:47;;;;;;;;;;;17.80;99.90;;;;;;5034354;28;19909;-76
2021/07/15 10:38:13;;;;;;;;;;;17.80;99.90;;;;;;5034372;28;20354;-77
2021/07/15 10:40:38;;;;;;;;;;;17.80;99.90;;;;;;5030065;28;19917;-76
2021/07/15 10:43:04;;;;;;;;;;;17.80;99.90;;;;;;5023160;28;20052;-76
2021/07/15 10:45:30;;;;;;;;;;;17.90;99.90;;;;;;5048279;28;20328;-76
2021/07/15 10:47:57;;;;;;;;;;;17.80;99.90;;;;;;5034812;28;19916;-77
2021/07/15 10:50:22;;;;;;;;;;;17.80;99.90;;;;;;5022624;28;20357;-76
2021/07/15 10:52:48;;;;;;;;;;;17.80;99.90;;;;;;5034637;28;19915;-77
2021/07/15 10:55:14;;;;;;;;;;;17.80;99.90;;;;;;5039208;28;20362;-76
2021/07/15 10:57:39;;;;;;;;;;;17.70;99.90;;;;;;5029100;28;19917;-76
2021/07/15 11:00:22;;;;;;;;;;;17.70;99.90;;;;;;5044924;28;19963;-77
2021/07/15 11:03:06;;;;;;;;;;;17.70;99.90;;;;;;5043326;28;19923;-76
2021/07/15 11:05:32;;;;;;;;;;;17.60;99.90;;;;;;5052474;28;19905;-76
2021/07/15 11:07:57;;;;;;;;;;;17.60;99.90;;;;;;5054136;28;19912;-76
2021/07/15 11:10:23;;;;;;;;;;;17.60;99.90;;;;;;5054707;28;19932;-77
2021/07/15 11:12:59;;;;;;;;;;;17.60;99.90;;;;;;5053688;28;19915;-76
2021/07/15 11:15:43;;;;;;;;;;;17.70;99.90;;;;;;5055202;28;19913;-76
2021/07/15 11:18:09;;;;;;;;;;;17.60;99.90;;;;;;5056706;28;19897;-76
2021/07/15 11:20:34;;;;;;;;;;;17.70;99.90;;;;;;5054860;28;19947;-74
2021/07/15 11:23:01;;;;;;;;;;;17.80;99.90;;;;;;5042686;28;19940;-72
2021/07/15 11:25:42;;;;;;;;;;;17.80;99.90;;;;;;5041564;28;19905;-75
2021/07/15 11:28:10;;;;;;;;;;;17.80;99.90;;;;;;5040340;28;19913;-76
2021/07/15 11:30:36;;;;;;;;;;;17.80;99.90;;;;;;5038272;28;20368;-76
2021/07/15 11:33:10;;;;;;;;;;;17.90;99.90;;;;;;5035771;28;19909;-76
2021/07/15 11:35:36;;;;;;;;;;;17.90;99.90;;;;;;5034154;28;19962;-76
2021/07/15 11:38:12;;;;;;;;;;;17.90;99.90;;;;;;5033185;28;19909;-76
2021/07/15 11:40:37;;;;;;;;;;;17.90;99.90;;;;;;5031121;28;19909;-77
2021/07/15 11:43:25;;;;;;;;;;;17.90;99.90;;;;;;5032163;28;19909;-76
2021/07/15 11:46:11;;;;;;;;;;;17.90;99.90;;;;;;5037003;28;20031;-76
2021/07/15 11:48:50;;;;;;;;;;;18.00;99.90;;;;;;5037989;28;19916;-77
2021/07/15 11:51:23;;;;;;;;;;;17.90;99.90;;;;;;5033878;28;19909;-76
2021/07/15 11:54:07;;;;;;;;;;;17.90;99.90;;;;;;5033792;28;19909;-77
2021/07/15 11:56:36;;;;;;;;;;;17.90;99.90;;;;;;5013477;28;19909;-77
2021/07/15 11:59:01;;;;;;;;;;;17.90;99.90;;;;;;5018352;28;20417;-77
2021/07/15 12:01:31;;;;;;;;;;;17.90;99.90;;;;;;5032277;28;19991;-77
2021/07/15 12:03:59;;;;;;;;;;;17.90;99.90;;;;;;5033011;28;19912;-76
2021/07/15 12:06:25;;;;;;;;;;;18.00;99.90;;;;;;5030815;28;20400;-77
2021/07/15 12:08:50;;;;;;;;;;;18.00;99.90;;;;;;5035536;28;19916;-77
2021/07/15 12:11:21;;;;;;;;;;;18.00;99.90;;;;;;5037002;28;19940;-76
2021/07/15 12:13:51;;;;;;;;;;;18.00;99.90;;;;;;5036260;28;19932;-76
2021/07/15 12:16:18;;;;;;;;;;;18.00;99.90;;;;;;5037062;28;19909;-77
2021/07/15 12:18:43;;;;;;;;;;;18.00;99.90;;;;;;5037287;28;19912;-76
2021/07/15 12:21:09;;;;;;;;;;;18.00;99.90;;;;;;5034415;28;21325;-76
2021/07/15 12:23:35;;;;;;;;;;;18.00;99.90;;;;;;5035183;28;20288;-76
2021/07/15 12:26:01;;;;;;;;;;;18.10;99.90;;;;;;5035972;28;20273;-77
2021/07/15 12:28:29;;;;;;;;;;;18.10;99.90;;;;;;5037163;28;19999;-76
2021/07/15 12:30:57;;;;;;;;;;;18.10;99.90;;;;;;5037484;28;20316;-77
2021/07/15 12:33:23;;;;;;;;;;;18.10;99.90;;;;;;5036028;28;20277;-76
2021/07/15 12:35:50;;;;;;;;;;;18.10;99.90;;;;;;5036769;28;19909;-77
2021/07/15 12:38:26;;;;;;;;;;;18.10;99.90;;;;;;5035615;28;19909;-77
2021/07/15 12:41:07;;;;;;;;;;;18.20;99.90;;;;;;5036114;28;20357;-78
2021/07/15 12:43:53;;;;;;;;;;;18.20;99.90;;;;;;5035220;28;20312;-76
2021/07/15 12:46:21;;;;;;;;;;;18.10;99.90;;;;;;5030779;28;19916;-74
2021/07/15 12:48:51;;;;;;;;;;;18.10;99.90;;;;;;5036803;28;20297;-76
2021/07/15 12:51:17;;;;;;;;;;;18.10;99.90;;;;;;5035367;28;19996;-76
2021/07/15 12:53:45;;;;;;;;;;;18.10;99.90;;;;;;5031280;28;19909;-75
2021/07/15 12:56:17;;;;;;;;;;;18.10;99.90;;;;;;5034174;28;19909;-75
2021/07/15 12:58:43;;;;;;;;;;;18.20;99.90;;;;;;5035521;28;19916;-76
2021/07/15 13:01:08;;;;;;;;;;;18.20;99.90;;;;;;5038193;28;19908;-76
2021/07/15 13:03:34;;;;;;;;;;;18.20;99.90;;;;;;5046221;28;19916;-76
2021/07/15 13:06:00;;;;;;;;;;;18.10;99.90;;;;;;5036031;28;19920;-75
2021/07/15 13:08:49;;;;;;;;;;;18.10;99.90;;;;;;5031620;28;19921;-77
2021/07/15 13:14:15;;;;;;;;;;;18.10;99.90;;;;;;5036825;28;20000;-76
2021/07/15 13:16:45;;;;;;;;;;;18.20;99.90;;;;;;5036029;28;20004;-76
2021/07/15 13:19:11;;;;;;;;;;;18.10;99.90;;;;;;5035812;28;20343;-76
2021/07/15 13:21:36;;;;;;;;;;;18.10;99.90;;;;;;5039970;28;19920;-76
2021/07/15 13:24:03;;;;;;;;;;;18.10;99.90;;;;;;5045723;28;19908;-75
2021/07/15 13:26:29;;;;;;;;;;;18.00;99.90;;;;;;5040815;28;20003;-75
2021/07/15 13:28:54;;;;;;;;;;;18.00;99.90;;;;;;5044329;28;20017;-75
2021/07/15 13:31:20;;;;;;;;;;;18.00;99.90;;;;;;5043845;28;19916;-76
2021/07/15 13:33:47;;;;;;;;;;;18.00;99.90;;;;;;5042743;28;20003;-75
2021/07/15 13:36:14;;;;;;;;;;;18.00;99.90;;;;;;5032349;28;20293;-75
2021/07/15 13:38:43;;;;;;;;;;;17.90;99.90;;;;;;5045330;28;19956;-76
2021/07/15 13:41:26;;;;;;;;;;;17.90;99.90;;;;;;5038764;28;19917;-75
2021/07/15 13:44:05;;;;;;;;;;;17.90;99.90;;;;;;5035998;28;19917;-75
2021/07/15 13:46:30;;;;;;;;;;;17.90;99.90;;;;;;5038655;28;20338;-74
2021/07/15 13:48:56;;;;;;;;;;;18.00;99.90;;;;;;5045895;28;19915;-75
2021/07/15 13:51:25;;;;;;;;;;;17.90;99.90;;;;;;5049345;28;19976;-75
2021/07/15 13:53:51;;;;;;;;;;;17.90;99.90;;;;;;5048479;28;19913;-73
2021/07/15 13:56:17;;;;;;;;;;;17.80;99.90;;;;;;5046255;28;19913;-75
2021/07/15 13:58:43;;;;;;;;;;;17.80;99.90;;;;;;5050731;28;19909;-74
2021/07/15 14:01:08;;;;;;;;;;;17.80;99.90;;;;;;5043303;28;20023;-75
2021/07/15 14:03:38;;;;;;;;;;;17.70;99.90;;;;;;5049545;28;19963;-75
2021/07/15 14:06:03;;;;;;;;;;;17.70;99.90;;;;;;5039038;28;19904;-76
2021/07/15 14:08:30;;;;;;;;;;;17.70;99.90;;;;;;5043012;28;19925;-74
2021/07/15 14:10:56;;;;;;;;;;;17.70;99.90;;;;;;5037753;28;19936;-74
2021/07/15 14:13:23;;;;;;;;;;;17.70;99.90;;;;;;5032868;28;19920;-74
2021/07/15 14:15:57;;;;;;;;;;;17.70;99.90;;;;;;5033657;28;19909;-73
2021/07/15 14:18:23;;;;;;;;;;;17.70;99.90;;;;;;5038152;28;19913;-74
2021/07/15 14:20:50;;;;;;;;;;;17.70;99.90;;;;;;5043311;28;20467;-74